Nearby METAR Reports

 

KKLS - Kelso Longveiw, Washington, USA
Distance from station: ESE 7mi, 11km
Updated: Wed, Jan-16-2019 6:56am PST
Overcast
Overcast
 Wind from calm
Wind: Calm
Temperature: 30°F , -1°C
Dew Point: 30°F , -1°C
Humidity: 100%
Barometer: 29.80 inHg , 1009.1 hPa
Clouds: Overcast
Visibility: 10 miles , 16 km
Cloud details: Overcast 10000 ft
2019/01/16 14:56 KKLS 161456Z AUTO 00000KT 10SM OVC100 M01/M01 A2980 RMK AO2 SLP096 T10061011 53010 FZRANO
KSPB - Scappoose, Oregon, USA
Distance from station: SSE 29mi, 46km
Updated: Wed, Jan-16-2019 6:53am PST
Overcast
Overcast
 Wind from SW
Wind: SW 5 mph , 7 km/h
Temperature: 36°F , 2°C
Wind Chill: 32°F , 0°C
Dew Point: 30°F , -1°C
Humidity: 81%
Barometer: 29.81 inHg , 1009.5 hPa
Clouds: Overcast
Visibility: 10 miles , 16 km
Cloud details: Mostly cloudy 8000 ft
Overcast 10000 ft
2019/01/16 14:53 KSPB 161453Z AUTO 23004KT 10SM BKN080 OVC100 02/M01 A2981 RMK AO2 SLP094 T00221011 53014
 
KCLS - Chehalis Central, Washington, USA
Distance from station: N 36mi, 58km
Updated: Wed, Jan-16-2019 6:55am PST
Overcast
Overcast
 Wind from calm
Wind: Calm
Temperature: 32°F , 0°C
Dew Point: 32°F , 0°C
Humidity: 100%
Barometer: 29.77 inHg , 1008.1 hPa
Clouds: Overcast
Visibility: 10 miles , 16 km
Cloud details: Overcast 12000 ft
2019/01/16 14:55 KCLS 161455Z AUTO 00000KT 10SM OVC120 M00/M00 A2977 RMK AO2
KAST - Astoria, Oregon, USA
Distance from station: W 41mi, 66km
Updated: Wed, Jan-16-2019 6:55am PST
Overcast
Overcast
 Wind from E
Wind: E 9 mph , 15 km/h
Temperature: 45°F , 7°C
Wind Chill: 40°F , 4°C
Dew Point: 34°F , 1°C
Humidity: 66%
Barometer: 29.71 inHg , 1006.1 hPa
Clouds: Overcast
Visibility: 10 miles , 16 km
Cloud details: Overcast 10000 ft
2019/01/16 14:55 KAST 161455Z AUTO 09008KT 10SM OVC100 07/01 A2971 RMK AO2 SLP059 T00670006 53004
 
KVUO - Vancouver, Washington, USA
Distance from station: SSE 42mi, 68km
Updated: Wed, Jan-16-2019 6:53am PST
Overcast
Overcast
 Wind from E
Wind: E 3 mph , 6 km/h
Temperature: 37°F , 3°C
Dew Point: 27°F , -3°C
Humidity: 65%
Barometer: 29.81 inHg , 1009.5 hPa
Clouds: Overcast
Visibility: 10 miles , 16 km
Cloud details: Partly cloudy 7500 ft
Overcast 9500 ft
2019/01/16 14:53 KVUO 161453Z AUTO 10003KT 10SM SCT075 OVC095 03/M03 A2981 RMK AO2 SLP094 T00331028 53014
KHIO - Hillsboro/Portld, Oregon, USA
Distance from station: S 43mi, 69km
Updated: Wed, Jan-16-2019 6:53am PST
Overcast
Overcast
 Wind from NW
Wind: NW 3 mph , 6 km/h
Temperature: 34°F , 1°C
Dew Point: 30°F , -1°C
Humidity: 87%
Barometer: 29.80 inHg , 1009.1 hPa
Clouds: Overcast
Visibility: 10 miles , 16 km
Cloud details: Partly cloudy 7500 ft
Mostly cloudy 9000 ft
Overcast 10000 ft
2019/01/16 14:53 KHIO 161453Z 31003KT 10SM SCT075 BKN090 OVC100 01/M01 A2980 RMK AO2 SLP091 T00061011 53011
 
KPDX - Portland, Oregon, USA
Distance from station: SSE 44mi, 70km
Updated: Wed, Jan-16-2019 6:53am PST
Mostly cloudy
Mostly cloudy
 Wind from ESE
Wind: ESE 14 mph , 22 km/h
Temperature: 39°F , 4°C
Wind Chill: 31°F , -1°C
Dew Point: 27°F , -3°C
Humidity: 61%
Barometer: 29.81 inHg , 1009.5 hPa
Clouds: Mostly cloudy
Visibility: 10 miles , 16 km
Cloud details: Mostly cloudy 8500 ft
Mostly cloudy 11000 ft
2019/01/16 14:53 KPDX 161453Z 11012KT 10SM BKN085 BKN110 04/M03 A2981 RMK AO2 SLP093 T00391028 53014